Star Prairie, WI

2:58 PM CST on February 01, 2015 (GMT -0600)
New Richmond Municipal | Change Station
CLOSE
Current Station
Airport
Location: New Richmond,
Elevation: 997 ft
Nearby Weather Stations

Elev 997 ft 45.15 °N, 92.53 °W | Updated 23 minutes ago

Partly Cloudy
Partly Cloudy
16 °F
Feels Like 0 °F
N
16
Wind Variable Wind from NNE
Gusts 21 mph

Today
High -- | Low -- °F
--% Chance of Precip.
Yesterday
High -- | Low -- °F
Precip. -- in
7:30 AM 5:17 PM
Waxing Gibbous, 96% visible
Pressure 30.20 in
Visibility 10.0 miles
Clouds Scattered Clouds 3000 ft
Windchill 0 °F
Dew Point 4 °F
Humidity 59%
Rainfall 0.00 in
Snow Depth Not available.
UV 1 out of 12
Pollen .10 out of 12
Air Quality Not available.
Flu Activity Not available.
METAR KRNH 012035Z AUTO 02014G18KT 10SM SCT030 M09/M16 A3020 RMK AO2 T10911157

More Conditions Fewer Conditions

Pressure 30.20 in
Visibility 10.0 miles
Clouds Scattered Clouds 3000 ft
Windchill 0 °F
Dew Point 4 °F
Humidity 59%
Rainfall 0.00 in
Snow Depth Not available.
UV 1 out of 12
Pollen .10 out of 12
Air Quality Not available.
Flu Activity Not available.
METAR KRNH 012035Z AUTO 02014G18KT 10SM SCT030 M09/M16 A3020 RMK AO2 T10911157

More Conditions Fewer Conditions

10-Day Weather Forecast

Almanac

Astronomy

Feb. 01, 2015 Rise Set
Actual Time
Civil Twilight
Nautical Twilight
Astronomical Twilight
Moon
Length of Visible Light
Length of Day
Tomorrow will be .
, % of the Moon is Illuminated

Today's Extremes

State Highs State Lows

Community

WunderPhotos

Upload Photos

1,792,514 photos uploaded!

WunderBlogs® & News

Nearby

Air Quality

  Air Quality AQ Index Pollutant
Not available.

Snow Depth

Station Depth Elevation

Earthquake Activity

City Distance Mag. Time & Date
Minimum magnitude displayed is 2.5.

Coastal Water Temperatures

Place Temperature

Nearby Weather Stations